createdAt,value
2023-03-04T00:00:11.078Z,63.94
2023-03-04T00:01:11.080Z,63.84
2023-03-04T00:02:11.138Z,63.61
2023-03-04T00:03:11.179Z,63.62
2023-03-04T00:04:11.074Z,63.81
2023-03-04T00:05:11.066Z,63.91
2023-03-04T00:06:11.074Z,63.79
2023-03-04T00:07:11.085Z,63.77
2023-03-04T00:08:11.067Z,63.92
2023-03-04T00:09:11.073Z,63.96
2023-03-04T00:10:11.077Z,64.03
2023-03-04T00:11:11.068Z,64.17
2023-03-04T00:12:12.069Z,64.15
2023-03-04T00:13:11.082Z,64.05
2023-03-04T00:14:11.068Z,64.12
2023-03-04T00:15:11.078Z,64.15
2023-03-04T00:16:11.153Z,64.08
2023-03-04T00:17:11.074Z,64.11
2023-03-04T00:18:11.069Z,64.08
2023-03-04T00:19:11.091Z,63.95
2023-03-04T00:20:11.072Z,63.87
2023-03-04T00:21:11.072Z,63.83
2023-03-04T00:22:11.081Z,63.79
2023-03-04T00:23:11.072Z,63.75
2023-03-04T00:24:11.081Z,63.81
2023-03-04T00:25:11.096Z,63.82
2023-03-04T00:26:11.076Z,64.01
2023-03-04T00:27:11.073Z,64.00
2023-03-04T00:28:11.076Z,63.94
2023-03-04T00:29:11.075Z,64.04
2023-03-04T00:30:11.076Z,64.06
2023-03-04T00:31:11.069Z,64.06
2023-03-04T00:32:11.209Z,64.06
2023-03-04T00:33:11.071Z,63.94
2023-03-04T00:34:11.073Z,63.99
2023-03-04T00:35:11.095Z,64.02
2023-03-04T00:36:11.069Z,64.08
2023-03-04T00:37:11.071Z,64.08
2023-03-04T00:38:11.071Z,64.10
2023-03-04T00:39:11.076Z,64.08
2023-03-04T00:40:11.100Z,64.08
2023-03-04T00:41:11.081Z,64.14
2023-03-04T00:42:11.070Z,64.11
2023-03-04T00:43:11.071Z,64.14
2023-03-04T00:44:11.082Z,64.17
2023-03-04T00:45:11.073Z,64.22
2023-03-04T00:46:11.127Z,64.31
2023-03-04T00:47:11.079Z,64.28
2023-03-04T00:48:11.071Z,64.24
2023-03-04T00:49:11.074Z,64.26
2023-03-04T00:50:11.079Z,64.41
2023-03-04T00:51:11.076Z,64.45
2023-03-04T00:52:11.071Z,64.49
2023-03-04T00:53:11.083Z,64.41
2023-03-04T00:54:11.071Z,64.42
2023-03-04T00:55:11.069Z,64.44
2023-03-04T00:56:11.081Z,64.40
2023-03-04T00:57:11.083Z,64.33
2023-03-04T00:58:11.069Z,64.23
2023-03-04T00:59:11.075Z,64.18
2023-03-04T01:00:11.076Z,64.05
2023-03-04T01:01:11.117Z,63.97
2023-03-04T01:02:11.104Z,63.91
2023-03-04T01:03:11.058Z,63.87
2023-03-04T01:04:11.058Z,63.94
2023-03-04T01:05:11.111Z,63.89
2023-03-04T01:06:11.059Z,63.85
2023-03-04T01:07:11.056Z,63.85
2023-03-04T01:08:11.056Z,63.92
2023-03-04T01:09:11.065Z,63.86
2023-03-04T01:10:12.056Z,63.86
2023-03-04T01:11:11.071Z,63.82
2023-03-04T01:12:11.067Z,63.77
2023-03-04T01:13:11.056Z,63.72
2023-03-04T01:14:11.052Z,63.68
2023-03-04T01:15:14.061Z,63.82
2023-03-04T01:16:11.058Z,63.92
2023-03-04T01:17:11.090Z,63.89
2023-03-04T01:18:11.178Z,63.85
2023-03-04T01:19:11.065Z,63.86
2023-03-04T01:20:11.057Z,63.94
2023-03-04T01:21:11.058Z,63.90
2023-03-04T01:22:11.068Z,64.05
2023-03-04T01:23:11.062Z,64.20
2023-03-04T01:24:11.059Z,64.21
2023-03-04T01:25:11.065Z,64.26
2023-03-04T01:26:11.065Z,64.29
2023-03-04T01:27:11.054Z,64.35
2023-03-04T01:28:11.059Z,64.29
2023-03-04T01:29:11.060Z,64.26
2023-03-04T01:30:11.053Z,64.22
2023-03-04T01:31:11.138Z,64.25
2023-03-04T01:32:11.107Z,64.25
2023-03-04T01:33:11.052Z,64.26
2023-03-04T01:34:11.065Z,64.28
2023-03-04T01:35:11.068Z,64.28
2023-03-04T01:36:11.057Z,64.27
2023-03-04T01:37:11.062Z,64.40
2023-03-04T01:38:11.066Z,64.46
2023-03-04T01:39:11.061Z,64.48
2023-03-04T01:40:11.058Z,64.57
2023-03-04T01:41:12.062Z,64.62
2023-03-04T01:42:18.062Z,64.56
2023-03-04T01:43:15.066Z,64.54
2023-03-04T01:44:11.070Z,64.64
2023-03-04T01:45:14.059Z,64.70
2023-03-04T01:46:11.129Z,64.66
2023-03-04T01:47:11.070Z,64.70
2023-03-04T01:48:12.060Z,64.82
2023-03-04T01:49:12.083Z,64.79
2023-03-04T01:50:22.077Z,64.78
2023-03-04T01:51:15.068Z,64.86
2023-03-04T01:52:15.062Z,64.92
2023-03-04T01:53:19.061Z,65.02
2023-03-04T01:54:11.062Z,64.98
2023-03-04T01:55:17.063Z,64.99
2023-03-04T01:56:22.095Z,65.04
2023-03-04T01:57:21.078Z,65.14
2023-03-04T01:58:12.061Z,65.13
2023-03-04T01:59:21.064Z,65.15
2023-03-04T02:00:19.064Z,65.36
2023-03-04T02:01:16.125Z,65.38
2023-03-04T02:02:11.059Z,65.44
2023-03-04T02:03:15.070Z,65.39
2023-03-04T02:04:11.091Z,65.51
2023-03-04T02:05:11.063Z,65.47
2023-03-04T02:06:11.066Z,65.50
2023-03-04T02:07:11.062Z,65.47
2023-03-04T02:08:11.059Z,65.50
2023-03-04T02:09:11.067Z,65.63
2023-03-04T02:10:11.072Z,65.67
2023-03-04T02:11:11.060Z,65.62
2023-03-04T02:12:11.066Z,65.57
2023-03-04T02:13:11.065Z,65.59
2023-03-04T02:14:11.062Z,65.74
2023-03-04T02:15:11.069Z,65.79
2023-03-04T02:16:11.204Z,65.87
2023-03-04T02:17:15.071Z,66.03
2023-03-04T02:18:19.064Z,65.98
2023-03-04T02:19:19.073Z,65.89
2023-03-04T02:20:21.082Z,65.92
2023-03-04T02:21:21.088Z,65.87
2023-03-04T02:22:11.071Z,65.88
2023-03-04T02:23:19.073Z,66.07
2023-03-04T02:24:19.073Z,66.14
2023-03-04T02:25:15.065Z,66.10
2023-03-04T02:26:16.061Z,66.12
2023-03-04T02:27:11.071Z,66.08
2023-03-04T02:28:11.067Z,65.94
2023-03-04T02:29:11.070Z,65.89
2023-03-04T02:30:11.070Z,65.88
2023-03-04T02:31:19.079Z,65.87
2023-03-04T02:32:14.128Z,65.92
2023-03-04T02:33:15.066Z,66.02
2023-03-04T02:34:18.073Z,66.08
2023-03-04T02:35:16.074Z,66.08
2023-03-04T02:36:11.070Z,66.16
2023-03-04T02:37:12.064Z,66.21
2023-03-04T02:38:11.069Z,66.22
2023-03-04T02:39:19.068Z,66.16
2023-03-04T02:40:22.074Z,66.21
2023-03-04T02:41:16.070Z,66.16
2023-03-04T02:42:11.067Z,66.24
2023-03-04T02:43:11.070Z,66.21
2023-03-04T02:44:21.065Z,66.20
2023-03-04T02:45:19.068Z,66.21
2023-03-04T02:46:12.119Z,66.35
2023-03-04T02:47:11.075Z,66.20
2023-03-04T02:48:11.068Z,66.17
2023-03-04T02:49:11.071Z,66.08
2023-03-04T02:50:11.069Z,66.06
2023-03-04T02:51:11.083Z,66.15
2023-03-04T02:52:13.074Z,66.07
2023-03-04T02:53:11.070Z,66.03
2023-03-04T02:54:18.065Z,65.99
2023-03-04T02:55:11.070Z,65.94
2023-03-04T02:56:11.085Z,65.90
2023-03-04T02:57:11.071Z,65.94
2023-03-04T02:58:11.093Z,65.88
2023-03-04T02:59:11.087Z,65.96
2023-03-04T03:00:11.076Z,65.94
2023-03-04T03:01:11.074Z,66.10
2023-03-04T03:02:11.087Z,66.07
2023-03-04T03:03:11.132Z,66.09
2023-03-04T03:04:11.080Z,66.12
2023-03-04T03:05:11.079Z,66.05
2023-03-04T03:06:11.073Z,65.83
2023-03-04T03:07:11.068Z,65.77
2023-03-04T03:08:11.079Z,65.67
2023-03-04T03:09:11.072Z,65.66
2023-03-04T03:10:11.068Z,65.80
2023-03-04T03:11:11.079Z,65.83
2023-03-04T03:12:11.077Z,65.82
2023-03-04T03:13:11.068Z,65.68
2023-03-04T03:14:11.078Z,65.61
2023-03-04T03:15:11.074Z,65.68
2023-03-04T03:16:11.091Z,65.80
2023-03-04T03:17:11.079Z,65.61
2023-03-04T03:18:13.070Z,65.70
2023-03-04T03:19:11.078Z,65.61
2023-03-04T03:20:11.084Z,65.59
2023-03-04T03:21:11.071Z,65.58
2023-03-04T03:22:11.070Z,65.62
2023-03-04T03:23:11.075Z,65.66
2023-03-04T03:24:11.073Z,65.65
2023-03-04T03:25:11.070Z,65.76
2023-03-04T03:26:11.078Z,65.65
2023-03-04T03:27:11.077Z,65.58
2023-03-04T03:28:11.066Z,65.57
2023-03-04T03:29:11.070Z,65.49
2023-03-04T03:30:11.073Z,65.67
2023-03-04T03:31:11.151Z,65.73
2023-03-04T03:32:11.117Z,65.70
2023-03-04T03:33:11.076Z,65.75
2023-03-04T03:34:11.069Z,65.93
2023-03-04T03:35:11.068Z,65.86
2023-03-04T03:36:11.097Z,65.90
2023-03-04T03:37:11.065Z,65.89
2023-03-04T03:38:11.075Z,65.92
2023-03-04T03:39:11.077Z,65.71
2023-03-04T03:40:11.069Z,65.54
2023-03-04T03:41:11.067Z,65.39
2023-03-04T03:42:11.069Z,65.38
2023-03-04T03:43:11.067Z,65.46
2023-03-04T03:44:11.069Z,65.45
2023-03-04T03:45:11.098Z,65.41
2023-03-04T03:46:11.139Z,65.40
2023-03-04T03:47:11.070Z,65.42
2023-03-04T03:48:11.076Z,65.48
2023-03-04T03:49:11.071Z,65.48
2023-03-04T03:50:11.084Z,65.33
2023-03-04T03:51:11.077Z,65.31
2023-03-04T03:52:12.068Z,65.32
2023-03-04T03:53:11.067Z,65.38
2023-03-04T03:54:11.092Z,65.37
2023-03-04T03:55:11.072Z,65.42
2023-03-04T03:56:11.074Z,65.40
2023-03-04T03:57:11.083Z,65.42
2023-03-04T03:58:11.122Z,65.41
2023-03-04T03:59:11.106Z,65.42
2023-03-04T04:00:11.081Z,65.31
2023-03-04T04:01:11.115Z,65.44
2023-03-04T04:02:11.146Z,65.31
2023-03-04T04:03:14.087Z,65.31
2023-03-04T04:04:11.063Z,65.34
2023-03-04T04:05:11.063Z,65.35
2023-03-04T04:06:11.070Z,65.27
2023-03-04T04:07:11.062Z,65.36
2023-03-04T04:08:12.063Z,65.37
2023-03-04T04:09:11.061Z,65.30
2023-03-04T04:10:11.065Z,65.21
2023-03-04T04:11:13.064Z,65.17
2023-03-04T04:12:11.063Z,65.25
2023-03-04T04:13:11.065Z,65.22
2023-03-04T04:14:13.063Z,65.20
2023-03-04T04:15:13.072Z,65.25
2023-03-04T04:16:11.120Z,65.24
2023-03-04T04:17:11.063Z,65.20
2023-03-04T04:18:11.070Z,65.25
2023-03-04T04:19:16.066Z,65.24
2023-03-04T04:20:11.063Z,65.14
2023-03-04T04:21:11.068Z,65.10
2023-03-04T04:22:14.069Z,65.07
2023-03-04T04:23:11.064Z,65.16
2023-03-04T04:24:11.075Z,65.07
2023-03-04T04:25:11.107Z,65.09
2023-03-04T04:26:11.070Z,65.10
2023-03-04T04:27:11.086Z,65.04
2023-03-04T04:28:11.091Z,65.10
2023-03-04T04:29:12.062Z,65.14
2023-03-04T04:30:11.072Z,65.12
2023-03-04T04:31:11.127Z,65.18
2023-03-04T04:32:11.084Z,65.28
2023-03-04T04:33:11.076Z,65.34
2023-03-04T04:34:11.069Z,65.32
2023-03-04T04:35:11.064Z,65.33
2023-03-04T04:36:13.063Z,65.36
2023-03-04T04:37:11.062Z,65.40
2023-03-04T04:38:11.064Z,65.44
2023-03-04T04:39:11.062Z,65.32
2023-03-04T04:40:11.065Z,65.33
2023-03-04T04:41:19.070Z,65.35
2023-03-04T04:42:11.066Z,65.31
2023-03-04T04:43:11.060Z,65.27
2023-03-04T04:44:11.060Z,65.26
2023-03-04T04:45:11.062Z,65.25
2023-03-04T04:46:11.070Z,65.21
2023-03-04T04:47:11.068Z,65.34
2023-03-04T04:48:11.061Z,65.27
2023-03-04T04:49:11.059Z,65.23
2023-03-04T04:50:11.059Z,65.23
2023-03-04T04:51:11.074Z,65.22
2023-03-04T04:52:11.058Z,65.19
2023-03-04T04:53:11.060Z,65.17
2023-03-04T04:54:11.072Z,65.11
2023-03-04T04:55:11.059Z,65.10
2023-03-04T04:56:14.058Z,65.16
2023-03-04T04:57:11.068Z,65.11
2023-03-04T04:58:11.062Z,65.11
2023-03-04T04:59:11.057Z,65.12
2023-03-04T05:00:11.079Z,65.14
2023-03-04T05:01:11.104Z,65.19
2023-03-04T05:02:11.063Z,65.25
2023-03-04T05:03:11.087Z,65.18
2023-03-04T05:04:11.070Z,65.19
2023-03-04T05:05:11.081Z,65.23
2023-03-04T05:06:12.067Z,65.19
2023-03-04T05:07:11.072Z,65.12
2023-03-04T05:08:11.064Z,65.15
2023-03-04T05:09:11.066Z,65.10
2023-03-04T05:10:11.075Z,65.20
2023-03-04T05:11:11.076Z,65.20
2023-03-04T05:12:11.068Z,65.21
2023-03-04T05:13:11.070Z,65.20
2023-03-04T05:14:11.067Z,65.12
2023-03-04T05:15:11.072Z,65.21
2023-03-04T05:16:11.118Z,65.15
2023-03-04T05:17:11.066Z,65.15
2023-03-04T05:18:11.068Z,65.10
2023-03-04T05:19:11.276Z,65.07
2023-03-04T05:20:11.070Z,65.12
2023-03-04T05:21:11.071Z,65.10
2023-03-04T05:22:11.073Z,65.01
2023-03-04T05:23:11.078Z,64.91
2023-03-04T05:24:11.095Z,65.03
2023-03-04T05:25:11.069Z,65.04
2023-03-04T05:26:12.079Z,65.13
2023-03-04T05:27:11.077Z,65.19
2023-03-04T05:28:11.085Z,65.09
2023-03-04T05:29:11.089Z,65.02
2023-03-04T05:30:11.077Z,64.98
2023-03-04T05:31:11.120Z,64.95
2023-03-04T05:32:11.131Z,65.07
2023-03-04T05:33:11.074Z,65.17
2023-03-04T05:34:11.072Z,64.97
2023-03-04T05:35:11.093Z,64.97
2023-03-04T05:36:11.078Z,64.95
2023-03-04T05:37:11.076Z,64.96
2023-03-04T05:38:12.080Z,64.92
2023-03-04T05:39:11.075Z,64.89
2023-03-04T05:40:11.080Z,64.99
2023-03-04T05:41:11.095Z,65.04
2023-03-04T05:42:11.073Z,65.07
2023-03-04T05:43:11.070Z,65.11
2023-03-04T05:44:11.086Z,65.09
2023-03-04T05:45:11.076Z,65.08
2023-03-04T05:46:14.117Z,65.02
2023-03-04T05:47:11.072Z,65.10
2023-03-04T05:48:11.075Z,65.00
2023-03-04T05:49:11.079Z,65.10
2023-03-04T05:50:11.073Z,65.07
2023-03-04T05:51:11.076Z,65.02
2023-03-04T05:52:11.082Z,65.03
2023-03-04T05:53:11.077Z,64.90
2023-03-04T05:54:11.076Z,64.94
2023-03-04T05:55:11.073Z,64.99
2023-03-04T05:56:15.073Z,64.92
2023-03-04T05:57:11.080Z,64.97
2023-03-04T05:58:11.073Z,64.97
2023-03-04T05:59:11.083Z,65.03
2023-03-04T06:00:11.086Z,64.95
2023-03-04T06:01:11.090Z,65.08
2023-03-04T06:02:11.082Z,65.17
2023-03-04T06:03:15.083Z,65.13
2023-03-04T06:04:11.141Z,65.08
2023-03-04T06:05:11.081Z,65.12
2023-03-04T06:06:11.143Z,65.07
2023-03-04T06:07:11.076Z,65.01
2023-03-04T06:08:11.070Z,65.03
2023-03-04T06:09:11.077Z,65.05
2023-03-04T06:10:11.081Z,65.02
2023-03-04T06:11:11.072Z,64.86
2023-03-04T06:12:11.074Z,64.87
2023-03-04T06:13:11.086Z,64.82
2023-03-04T06:14:11.122Z,64.82
2023-03-04T06:15:11.084Z,64.87
2023-03-04T06:16:11.178Z,64.87
2023-03-04T06:17:11.082Z,64.92
2023-03-04T06:18:11.074Z,64.89
2023-03-04T06:19:11.083Z,64.85
2023-03-04T06:20:11.078Z,64.83
2023-03-04T06:21:11.072Z,64.88
2023-03-04T06:22:11.107Z,64.92
2023-03-04T06:23:11.082Z,64.93
2023-03-04T06:24:11.072Z,64.92
2023-03-04T06:25:11.081Z,64.95
2023-03-04T06:26:13.094Z,64.91
2023-03-04T06:27:13.081Z,65.07
2023-03-04T06:28:11.076Z,65.17
2023-03-04T06:29:11.077Z,65.05
2023-03-04T06:30:11.077Z,65.02
2023-03-04T06:31:11.119Z,64.96
2023-03-04T06:32:11.094Z,64.97
2023-03-04T06:33:11.074Z,64.89
2023-03-04T06:34:11.078Z,64.93
2023-03-04T06:35:11.083Z,65.00
2023-03-04T06:36:11.079Z,65.09
2023-03-04T06:37:11.071Z,65.03
2023-03-04T06:38:11.097Z,64.98
2023-03-04T06:39:11.077Z,64.97
2023-03-04T06:40:11.094Z,64.92
2023-03-04T06:41:11.076Z,64.94
2023-03-04T06:42:11.082Z,65.07
2023-03-04T06:43:11.075Z,65.00
2023-03-04T06:44:11.074Z,64.94
2023-03-04T06:45:11.076Z,64.93
2023-03-04T06:46:11.069Z,65.02
2023-03-04T06:47:11.076Z,64.96
2023-03-04T06:48:11.079Z,65.08
2023-03-04T06:49:11.073Z,65.00
2023-03-04T06:50:11.074Z,65.03
2023-03-04T06:51:11.073Z,65.06
2023-03-04T06:52:11.079Z,65.15
2023-03-04T06:53:11.082Z,65.13
2023-03-04T06:54:11.092Z,65.26
2023-03-04T06:55:11.074Z,65.21
2023-03-04T06:56:11.074Z,65.16
2023-03-04T06:57:11.075Z,65.17
2023-03-04T06:58:11.077Z,65.16
2023-03-04T06:59:11.074Z,65.14
2023-03-04T07:00:11.080Z,65.09
2023-03-04T07:01:15.130Z,65.11
2023-03-04T07:02:12.066Z,65.09
2023-03-04T07:03:11.070Z,65.05
2023-03-04T07:04:11.115Z,65.09
2023-03-04T07:05:11.058Z,65.02
2023-03-04T07:06:11.083Z,64.93
2023-03-04T07:07:11.063Z,64.99
2023-03-04T07:08:11.063Z,64.94
2023-03-04T07:09:11.070Z,65.03
2023-03-04T07:10:11.062Z,64.96
2023-03-04T07:11:11.061Z,64.98
2023-03-04T07:12:11.084Z,64.98
2023-03-04T07:13:11.066Z,65.06
2023-03-04T07:14:11.065Z,65.05
2023-03-04T07:15:11.067Z,65.03
2023-03-04T07:16:11.099Z,65.02
2023-03-04T07:17:11.064Z,65.04
2023-03-04T07:18:11.072Z,65.08
2023-03-04T07:19:11.080Z,64.96
2023-03-04T07:20:11.074Z,64.92
2023-03-04T07:21:11.058Z,64.91
2023-03-04T07:22:11.073Z,64.96
2023-03-04T07:23:11.065Z,64.96
2023-03-04T07:24:11.061Z,65.02
2023-03-04T07:25:11.067Z,64.97
2023-03-04T07:26:11.066Z,65.08
2023-03-04T07:27:11.060Z,65.13
2023-03-04T07:28:11.074Z,65.06
2023-03-04T07:29:11.080Z,65.15
2023-03-04T07:30:11.072Z,65.10
2023-03-04T07:31:21.138Z,64.92
2023-03-04T07:32:11.164Z,64.93
2023-03-04T07:33:11.219Z,64.95
2023-03-04T07:34:12.073Z,64.97
2023-03-04T07:35:11.079Z,64.98
2023-03-04T07:36:11.068Z,64.95
2023-03-04T07:37:11.070Z,65.00
2023-03-04T07:38:11.074Z,65.11
2023-03-04T07:39:11.068Z,64.98
2023-03-04T07:40:12.064Z,65.01
2023-03-04T07:41:11.077Z,64.94
2023-03-04T07:42:11.068Z,64.85
2023-03-04T07:43:11.070Z,64.92
2023-03-04T07:44:13.145Z,64.87
2023-03-04T07:45:11.069Z,64.79
2023-03-04T07:46:11.123Z,64.89
2023-03-04T07:47:11.075Z,64.84
2023-03-04T07:48:11.070Z,64.79
2023-03-04T07:49:11.079Z,64.77
2023-03-04T07:50:11.076Z,64.70
2023-03-04T07:51:17.076Z,64.67
2023-03-04T07:52:11.067Z,64.73
2023-03-04T07:53:11.067Z,64.78
2023-03-04T07:54:12.069Z,64.81
2023-03-04T07:55:12.082Z,64.73
2023-03-04T07:56:14.090Z,64.83
2023-03-04T07:57:11.074Z,64.76
2023-03-04T07:58:11.069Z,64.61
2023-03-04T07:59:11.070Z,64.60
2023-03-04T08:00:11.081Z,64.69
2023-03-04T08:01:11.074Z,64.76
2023-03-04T08:02:11.147Z,64.77
2023-03-04T08:03:11.070Z,64.80
2023-03-04T08:04:11.087Z,65.05
2023-03-04T08:05:11.070Z,64.80
2023-03-04T08:06:11.078Z,64.72
2023-03-04T08:07:11.071Z,64.69
2023-03-04T08:08:11.069Z,64.68
2023-03-04T08:09:11.067Z,64.61
2023-03-04T08:10:11.070Z,64.56
2023-03-04T08:11:16.066Z,64.69
2023-03-04T08:12:11.069Z,64.64
2023-03-04T08:13:11.076Z,64.69
2023-03-04T08:14:11.067Z,64.77
2023-03-04T08:15:11.075Z,65.00
2023-03-04T08:16:12.155Z,64.93
2023-03-04T08:17:11.078Z,64.99
2023-03-04T08:18:11.063Z,64.92
2023-03-04T08:19:11.074Z,64.96
2023-03-04T08:20:11.069Z,64.87
2023-03-04T08:21:13.087Z,64.97
2023-03-04T08:22:13.071Z,65.04
2023-03-04T08:23:11.068Z,64.97
2023-03-04T08:24:12.067Z,64.98
2023-03-04T08:25:11.068Z,65.04
2023-03-04T08:26:11.068Z,65.01
2023-03-04T08:27:11.069Z,65.09
2023-03-04T08:28:11.066Z,65.20
2023-03-04T08:29:12.071Z,65.03
2023-03-04T08:30:11.078Z,64.93
2023-03-04T08:31:11.186Z,64.93
2023-03-04T08:32:11.146Z,64.82
2023-03-04T08:33:11.067Z,64.79
2023-03-04T08:34:11.075Z,64.77
2023-03-04T08:35:11.071Z,64.66
2023-03-04T08:36:11.067Z,64.56
2023-03-04T08:37:11.069Z,64.54
2023-03-04T08:38:11.072Z,64.56
2023-03-04T08:39:12.068Z,64.57
2023-03-04T08:40:11.079Z,64.58
2023-03-04T08:41:11.070Z,64.59
2023-03-04T08:42:11.066Z,64.58
2023-03-04T08:43:11.068Z,64.60
2023-03-04T08:44:12.075Z,64.52
2023-03-04T08:45:11.070Z,64.60
2023-03-04T08:46:11.106Z,64.46
2023-03-04T08:47:13.079Z,64.44
2023-03-04T08:48:11.069Z,64.39
2023-03-04T08:49:11.068Z,64.36
2023-03-04T08:50:11.077Z,64.30
2023-03-04T08:51:14.088Z,64.33
2023-03-04T08:52:11.069Z,64.29
2023-03-04T08:53:11.069Z,64.20
2023-03-04T08:54:11.072Z,64.16
2023-03-04T08:55:11.069Z,64.23
2023-03-04T08:56:11.071Z,64.23
2023-03-04T08:57:11.069Z,64.25
2023-03-04T08:58:11.082Z,64.13
2023-03-04T08:59:11.079Z,64.07
2023-03-04T09:00:11.071Z,63.95
2023-03-04T09:01:11.076Z,63.91
2023-03-04T09:02:11.071Z,63.94
2023-03-04T09:03:11.086Z,64.00
2023-03-04T09:04:11.071Z,63.89
2023-03-04T09:05:11.072Z,63.76
2023-03-04T09:06:11.078Z,63.57
2023-03-04T09:07:11.071Z,63.71
2023-03-04T09:08:11.073Z,63.71
2023-03-04T09:09:11.079Z,63.57
2023-03-04T09:10:11.074Z,63.67
2023-03-04T09:11:11.067Z,63.65
2023-03-04T09:12:11.078Z,63.55
2023-03-04T09:13:11.079Z,63.62
2023-03-04T09:14:11.079Z,63.38
2023-03-04T09:15:12.146Z,63.59
2023-03-04T09:16:13.241Z,63.45
2023-03-04T09:17:11.075Z,63.39
2023-03-04T09:18:11.081Z,63.24
2023-03-04T09:19:11.073Z,63.21
2023-03-04T09:20:12.074Z,63.31
2023-03-04T09:21:11.077Z,63.34
2023-03-04T09:22:11.079Z,63.47
2023-03-04T09:23:11.067Z,63.31
2023-03-04T09:24:11.076Z,63.12
2023-03-04T09:25:13.290Z,63.24
2023-03-04T09:26:19.069Z,63.14
2023-03-04T09:27:11.073Z,63.24
2023-03-04T09:28:11.080Z,63.25
2023-03-04T09:29:11.073Z,63.26
2023-03-04T09:30:11.071Z,63.16
2023-03-04T09:31:13.119Z,63.27
2023-03-04T09:32:11.134Z,63.23
2023-03-04T09:33:11.072Z,63.21
2023-03-04T09:34:11.076Z,63.00
2023-03-04T09:35:11.077Z,63.03
2023-03-04T09:36:11.072Z,63.08
2023-03-04T09:37:11.074Z,63.14
2023-03-04T09:38:11.081Z,62.99
2023-03-04T09:39:11.072Z,62.96
2023-03-04T09:40:15.075Z,62.95
2023-03-04T09:41:15.075Z,62.96
2023-03-04T09:42:14.073Z,63.04
2023-03-04T09:43:18.077Z,62.97
2023-03-04T09:44:19.079Z,62.83
2023-03-04T09:45:13.083Z,62.92
2023-03-04T09:46:13.135Z,62.85
2023-03-04T09:47:17.095Z,62.82
2023-03-04T09:48:14.095Z,62.97
2023-03-04T09:49:12.076Z,62.87
2023-03-04T09:50:11.075Z,62.87
2023-03-04T09:51:19.085Z,62.80
2023-03-04T09:52:19.082Z,62.93
2023-03-04T09:53:19.073Z,62.86
2023-03-04T09:54:15.074Z,62.86
2023-03-04T09:55:17.074Z,62.88
2023-03-04T09:56:12.087Z,62.88
2023-03-04T09:57:19.090Z,62.86
2023-03-04T09:58:21.083Z,62.60
2023-03-04T09:59:19.075Z,62.58
2023-03-04T10:00:19.095Z,62.55
2023-03-04T10:01:21.065Z,62.63
2023-03-04T10:02:20.061Z,62.64
2023-03-04T10:03:19.132Z,62.59
2023-03-04T10:04:21.117Z,62.39
2023-03-04T10:05:15.065Z,62.38
2023-03-04T10:06:12.062Z,62.28
2023-03-04T10:07:17.061Z,62.40
2023-03-04T10:08:19.060Z,62.32
2023-03-04T10:09:17.069Z,62.38
2023-03-04T10:10:22.174Z,62.30
2023-03-04T10:11:16.070Z,62.31
2023-03-04T10:12:18.066Z,62.35
2023-03-04T10:13:17.075Z,62.38
2023-03-04T10:14:19.062Z,62.16
2023-03-04T10:15:19.085Z,62.17
2023-03-04T10:16:16.094Z,62.17
2023-03-04T10:17:19.062Z,62.15
2023-03-04T10:18:20.508Z,62.28
2023-03-04T10:19:19.062Z,62.29
2023-03-04T10:20:21.058Z,62.17
2023-03-04T10:21:20.073Z,62.30
2023-03-04T10:22:21.065Z,62.14
2023-03-04T10:23:18.070Z,62.06
2023-03-04T10:24:14.068Z,62.08
2023-03-04T10:25:19.057Z,62.03
2023-03-04T10:26:15.068Z,62.22
2023-03-04T10:27:15.058Z,62.15
2023-03-04T10:28:18.061Z,62.12
2023-03-04T10:29:15.060Z,62.15
2023-03-04T10:30:20.056Z,62.06
2023-03-04T10:31:19.093Z,61.96
2023-03-04T10:32:16.124Z,61.99
2023-03-04T10:33:18.060Z,62.00
2023-03-04T10:34:12.061Z,62.04
2023-03-04T10:35:13.058Z,61.88
2023-03-04T10:36:19.054Z,61.96
2023-03-04T10:37:11.050Z,61.98
2023-03-04T10:38:12.053Z,62.04
2023-03-04T10:39:16.054Z,62.21
2023-03-04T10:40:19.049Z,62.38
2023-03-04T10:41:15.055Z,62.20
2023-03-04T10:42:19.142Z,62.17
2023-03-04T10:43:16.058Z,62.02
2023-03-04T10:44:17.064Z,62.00
2023-03-04T10:45:19.048Z,61.95
2023-03-04T10:46:12.157Z,61.90
2023-03-04T10:47:11.058Z,61.74
2023-03-04T10:48:21.044Z,61.82
2023-03-04T10:49:12.052Z,61.64
2023-03-04T10:50:19.050Z,61.66
2023-03-04T10:51:19.051Z,61.69
2023-03-04T10:52:19.062Z,61.80
2023-03-04T10:53:19.047Z,61.66
2023-03-04T10:54:16.060Z,61.65
2023-03-04T10:55:18.048Z,61.49
2023-03-04T10:56:19.058Z,61.52
2023-03-04T10:57:16.051Z,61.33
2023-03-04T10:58:17.045Z,61.37
2023-03-04T10:59:19.046Z,61.19
2023-03-04T11:00:19.070Z,60.97
2023-03-04T11:01:15.188Z,61.17
2023-03-04T11:02:19.049Z,61.17
2023-03-04T11:03:19.047Z,61.07
2023-03-04T11:04:17.098Z,60.89
2023-03-04T11:05:19.046Z,60.82
2023-03-04T11:06:18.058Z,60.78
2023-03-04T11:07:15.047Z,60.64
2023-03-04T11:08:18.052Z,60.59
2023-03-04T11:09:19.044Z,60.71
2023-03-04T11:10:17.042Z,60.75
2023-03-04T11:11:19.046Z,60.66
2023-03-04T11:12:14.043Z,60.72
2023-03-04T11:13:18.042Z,60.55
2023-03-04T11:14:20.048Z,60.51
2023-03-04T11:15:17.040Z,60.50
2023-03-04T11:16:19.046Z,60.53
2023-03-04T11:17:21.057Z,60.43
2023-03-04T11:18:14.046Z,60.21
2023-03-04T11:19:16.344Z,60.23
2023-03-04T11:20:17.041Z,60.34
2023-03-04T11:21:19.058Z,60.29
2023-03-04T11:22:14.043Z,60.40
2023-03-04T11:23:16.041Z,60.60
2023-03-04T11:24:28.088Z,60.41
2023-03-04T11:25:21.257Z,60.32
2023-03-04T11:26:18.064Z,60.18
2023-03-04T11:27:19.039Z,60.39
2023-03-04T11:28:19.044Z,60.37
2023-03-04T11:29:20.046Z,60.39
2023-03-04T11:30:21.048Z,60.43
2023-03-04T11:31:20.120Z,60.49
2023-03-04T11:32:19.174Z,60.21
2023-03-04T11:33:21.051Z,60.31
2023-03-04T11:34:19.042Z,60.01
2023-03-04T11:35:19.120Z,59.88
2023-03-04T11:36:21.048Z,60.01
2023-03-04T11:37:20.053Z,60.16
2023-03-04T11:38:20.047Z,60.14
2023-03-04T11:39:19.056Z,60.27
2023-03-04T11:40:18.062Z,60.14
2023-03-04T11:41:16.079Z,60.22
2023-03-04T11:42:19.060Z,60.40
2023-03-04T11:43:18.067Z,60.41
2023-03-04T11:44:12.064Z,60.35
2023-03-04T11:45:27.944Z,60.26
2023-03-04T11:46:25.043Z,60.25
2023-03-04T11:47:19.076Z,60.13
2023-03-04T11:48:21.072Z,60.15
2023-03-04T11:49:21.071Z,60.14
2023-03-04T11:50:19.179Z,59.94
2023-03-04T11:51:21.073Z,60.15
2023-03-04T11:52:19.071Z,60.13
2023-03-04T11:53:21.071Z,59.88
2023-03-04T11:54:19.074Z,59.96
2023-03-04T11:55:19.096Z,59.77
2023-03-04T11:56:22.073Z,59.95
2023-03-04T11:57:19.070Z,59.86
2023-03-04T11:58:21.067Z,59.83
2023-03-04T11:59:19.073Z,59.79
2023-03-04T12:00:19.079Z,59.78
2023-03-04T12:01:15.073Z,59.99
2023-03-04T12:02:16.348Z,60.02
2023-03-04T12:03:19.558Z,60.08
2023-03-04T12:04:21.554Z,60.28
2023-03-04T12:05:21.072Z,60.25
2023-03-04T12:06:19.373Z,60.28
2023-03-04T12:07:18.436Z,60.11
2023-03-04T12:08:19.362Z,60.14
2023-03-04T12:09:19.454Z,60.04
2023-03-04T12:10:19.492Z,59.87
2023-03-04T12:11:19.466Z,59.86
2023-03-04T12:12:19.457Z,59.69
2023-03-04T12:13:21.067Z,59.76
2023-03-04T12:14:19.233Z,59.68
2023-03-04T12:15:19.073Z,59.64
2023-03-04T12:16:19.316Z,59.85
2023-03-04T12:17:19.239Z,59.97
2023-03-04T12:18:19.384Z,59.82
2023-03-04T12:19:19.372Z,59.64
2023-03-04T12:20:19.150Z,59.62
2023-03-04T12:21:19.329Z,59.73
2023-03-04T12:22:21.364Z,59.81
2023-03-04T12:23:19.312Z,59.72
2023-03-04T12:24:21.355Z,59.56
2023-03-04T12:25:21.078Z,59.67
2023-03-04T12:26:19.341Z,59.72
2023-03-04T12:27:19.305Z,59.77
2023-03-04T12:28:19.297Z,59.88
2023-03-04T12:29:19.139Z,59.83
2023-03-04T12:30:19.383Z,59.70
2023-03-04T12:31:21.164Z,59.59
2023-03-04T12:32:21.148Z,59.59
2023-03-04T12:33:19.326Z,59.56
2023-03-04T12:34:19.438Z,59.60
2023-03-04T12:35:19.567Z,59.56
2023-03-04T12:36:19.425Z,59.48
2023-03-04T12:37:19.081Z,59.31
2023-03-04T12:38:19.399Z,59.30
2023-03-04T12:39:19.544Z,59.44
2023-03-04T12:40:21.078Z,59.45
2023-03-04T12:41:19.445Z,59.50
2023-03-04T12:42:19.502Z,59.74
2023-03-04T12:43:19.360Z,59.64
2023-03-04T12:44:17.221Z,59.79
2023-03-04T12:45:21.075Z,59.60
2023-03-04T12:46:19.199Z,59.52
2023-03-04T12:47:21.073Z,59.46
2023-03-04T12:48:19.076Z,59.26
2023-03-04T12:49:19.078Z,59.28
2023-03-04T12:50:21.087Z,59.33
2023-03-04T12:51:19.073Z,59.23
2023-03-04T12:52:19.073Z,59.19